Time;durP1;ratioP1;P1;durP2;ratioP2;P2;SDS_P1;SDS_P2;PMS_P1;PMS_P2;Temp;Humidity;BMP_temperature;BMP_pressure;BME280_temperature;BME280_humidity;BME280_pressure;Samples;Min_cycle;Max_cycle;Signal;HPM_P1;HPM_P2
2021/04/21 00:00:44;;;;;;;14.82;8.86;;;;;;;9.88;61.11;98544.52;343407;115;1963960;-72
2021/04/21 00:01:53;;;;;;;12.99;7.89;;;;;;;9.90;60.78;98543.23;344682;115;1960953;-72
2021/04/21 00:03:00;;;;;;;11.45;7.31;;;;;;;9.82;61.19;98538.17;343118;115;1961909;-72
2021/04/21 00:04:08;;;;;;;13.46;8.17;;;;;;;9.81;61.13;98551.87;331254;115;1962032;-72
2021/04/21 00:05:15;;;;;;;13.37;8.73;;;;;;;9.79;61.16;98546.72;341195;115;1962038;-71
2021/04/21 00:06:22;;;;;;;14.45;8.74;;;;;;;9.76;61.33;98541.76;342888;116;1961995;-72
2021/04/21 00:07:29;;;;;;;12.21;8.19;;;;;;;9.76;61.31;98538.25;341290;116;1962022;-72
2021/04/21 00:08:35;;;;;;;14.48;8.24;;;;;;;9.91;60.96;98549.45;310716;115;2246051;-70
2021/04/21 00:09:42;;;;;;;14.50;9.18;;;;;;;9.79;61.39;98552.11;342057;115;1961981;-72
2021/04/21 00:10:49;;;;;;;13.68;8.72;;;;;;;9.77;61.37;98548.00;345109;115;1962054;-72
2021/04/21 00:11:56;;;;;;;12.36;8.34;;;;;;;9.79;61.21;98545.87;305656;116;2682931;-71
2021/04/21 00:13:03;;;;;;;13.57;8.40;;;;;;;9.74;61.42;98545.73;343367;115;1961941;-71
2021/04/21 00:14:11;;;;;;;14.20;8.80;;;;;;;9.72;61.36;98547.86;343675;115;1961959;-72
2021/04/21 00:15:21;;;;;;;14.79;8.38;;;;;;;9.64;61.99;98544.42;343636;115;1962044;-72
2021/04/21 00:16:28;;;;;;;14.69;8.58;;;;;;;9.68;61.43;98551.02;343346;115;1961973;-72
2021/04/21 00:17:39;;;;;;;14.19;8.29;;;;;;;9.65;61.66;98545.23;335166;115;2913868;-73
2021/04/21 00:18:46;;;;;;;13.03;8.81;;;;;;;9.62;61.67;98546.52;316523;115;2465005;-72
2021/04/21 00:19:54;;;;;;;14.07;8.92;;;;;;;9.61;61.86;98549.45;344960;115;1962986;-71
2021/04/21 00:21:02;;;;;;;13.76;8.28;;;;;;;9.61;61.95;98552.15;313335;115;2619930;-71
2021/04/21 00:22:10;;;;;;;13.82;8.35;;;;;;;9.59;62.11;98546.97;341208;118;1963018;-72
2021/04/21 00:23:16;;;;;;;13.93;8.81;;;;;;;9.86;61.60;98544.73;345001;115;1964002;-73
2021/04/21 00:24:22;;;;;;;12.39;7.75;;;;;;;9.65;61.69;98551.44;345756;115;1961978;-72
2021/04/21 00:25:30;;;;;;;13.91;8.59;;;;;;;9.65;61.59;98550.63;344068;115;1964099;-73
2021/04/21 00:26:37;;;;;;;13.65;8.50;;;;;;;9.62;61.95;98551.09;343485;115;1961960;-72
2021/04/21 00:27:45;;;;;;;13.27;7.98;;;;;;;9.63;62.07;98552.72;343710;115;1961940;-72
2021/04/21 00:28:53;;;;;;;13.94;9.15;;;;;;;9.59;62.18;98552.36;343821;115;1961993;-72
2021/04/21 00:30:03;;;;;;;12.62;8.28;;;;;;;9.60;62.08;98556.69;316433;118;2429870;-72
2021/04/21 00:31:12;;;;;;;13.29;8.46;;;;;;;9.61;62.04;98555.66;319733;116;2428943;-72
2021/04/21 00:32:19;;;;;;;15.43;8.81;;;;;;;9.60;62.05;98547.78;341873;115;1962050;-72
2021/04/21 00:33:25;;;;;;;15.00;9.63;;;;;;;9.58;62.11;98557.97;322873;118;1962979;-69
2021/04/21 00:34:32;;;;;;;16.13;10.27;;;;;;;9.54;62.19;98554.91;343913;115;1963022;-73
2021/04/21 00:35:41;;;;;;;14.08;9.58;;;;;;;9.53;62.42;98553.28;343806;115;1961005;-71
2021/04/21 00:36:50;;;;;;;14.64;9.34;;;;;;;9.60;62.02;98551.30;342255;116;1961927;-72
2021/04/21 00:37:59;;;;;;;15.13;9.97;;;;;;;9.58;62.12;98557.97;348874;115;1965944;-72
2021/04/21 00:39:05;;;;;;;12.89;9.03;;;;;;;9.56;62.10;98558.21;293740;115;2104660;-72
2021/04/21 00:40:16;;;;;;;14.79;9.59;;;;;;;9.55;62.13;98556.58;343841;116;1962999;-73
2021/04/21 00:41:28;;;;;;;16.38;9.44;;;;;;;9.52;62.30;98561.58;343139;118;1961976;-71
2021/04/21 00:42:56;;;;;;;15.07;10.03;;;;;;;9.51;62.37;98554.55;308393;116;2585045;-72
2021/04/21 00:44:22;;;;;;;15.67;9.85;;;;;;;9.53;62.12;98552.46;343267;115;1962967;-72
2021/04/21 00:45:43;;;;;;;15.93;9.75;;;;;;;9.55;62.14;98556.58;343408;115;1961891;-72
2021/04/21 00:46:51;;;;;;;15.79;9.84;;;;;;;9.57;62.17;98559.03;294915;115;2081491;-72
2021/04/21 00:48:05;;;;;;;15.99;10.19;;;;;;;9.60;62.01;98563.97;342882;115;1962946;-72
2021/04/21 00:49:20;;;;;;;13.91;10.23;;;;;;;9.57;61.98;98562.54;342370;118;1961977;-71
2021/04/21 00:50:48;;;;;;;16.74;10.26;;;;;;;9.50;62.40;98555.58;343129;115;1962042;-72
2021/04/21 00:52:03;;;;;;;16.37;9.81;;;;;;;9.50;62.34;98566.36;313660;118;2538016;-71
2021/04/21 00:53:16;;;;;;;15.63;10.18;;;;;;;9.45;62.49;98564.38;329823;110;1962959;-72
2021/04/21 00:54:47;;;;;;;15.43;10.28;;;;;;;9.46;62.30;98569.52;362441;110;1961985;-72
2021/04/21 00:56:14;;;;;;;14.73;10.08;;;;;;;9.50;62.16;98566.36;352545;110;2939053;-72
2021/04/21 00:57:29;;;;;;;17.44;9.63;;;;;;;9.49;61.99;98567.42;365041;109;1961972;-72
2021/04/21 00:58:48;;;;;;;14.83;10.13;;;;;;;9.48;62.06;98560.40;365627;108;1961939;-72
2021/04/21 01:00:03;;;;;;;19.24;10.34;;;;;;;9.50;62.10;98566.36;347098;108;1962004;-72
2021/04/21 01:01:11;;;;;;;14.66;9.62;;;;;;;9.46;62.30;98564.12;366348;109;1961896;-73
2021/04/21 01:02:22;;;;;;;15.69;9.51;;;;;;;9.53;61.95;98558.67;329907;112;2882931;-72
2021/04/21 01:03:28;;;;;;;13.99;8.93;;;;;;;9.52;62.08;98559.70;317846;108;2813155;-72
2021/04/21 01:04:36;;;;;;;14.79;9.77;;;;;;;9.51;62.13;98562.64;342334;108;1961975;-71
2021/04/21 01:05:45;;;;;;;13.79;9.29;;;;;;;9.46;62.29;98561.43;360215;112;1961945;-71
2021/04/21 01:06:55;;;;;;;12.96;9.46;;;;;;;9.53;62.16;98571.33;322348;110;2617928;-72
2021/04/21 01:08:04;;;;;;;13.01;8.54;;;;;;;9.50;62.03;98567.22;359687;110;1969927;-71
2021/04/21 01:09:12;;;;;;;14.84;8.63;;;;;;;9.49;62.21;98564.73;361946;111;1961947;-71
2021/04/21 01:10:21;;;;;;;13.88;8.43;;;;;;;9.48;62.38;98560.40;343565;110;1961951;-71
2021/04/21 01:11:37;;;;;;;12.77;9.17;;;;;;;9.45;62.42;98565.19;328758;112;1962024;-73
2021/04/21 01:12:48;;;;;;;12.64;8.81;;;;;;;9.41;62.60;98569.37;305702;113;2111722;-72
2021/04/21 01:13:56;;;;;;;;;;;;;;;9.37;62.66;98565.49;364070;110;1961000;-72
2021/04/21 01:15:04;;;;;;;12.49;7.61;;;;;;;9.40;62.69;98569.61;332934;110;2437988;-71
2021/04/21 01:16:11;;;;;;;12.75;8.51;;;;;;;9.40;62.68;98565.03;358575;113;1961967;-72
2021/04/21 01:17:18;;;;;;;12.71;8.22;;;;;;;9.42;62.32;98564.80;334496;110;2409079;-71
2021/04/21 01:18:27;;;;;;;11.67;7.48;;;;;;;9.35;62.77;98570.28;356702;113;1961889;-72
2021/04/21 01:20:03;;;;;;;13.77;8.39;;;;;;;9.35;62.78;98564.89;312079;111;2088963;-72
2021/04/21 01:21:12;;;;;;;14.74;8.39;;;;;;;9.39;62.77;98568.80;357592;110;1963966;-72
2021/04/21 01:22:47;;;;;;;12.69;8.33;;;;;;;9.37;62.48;98568.19;302535;110;2145205;-72
2021/04/21 01:24:05;;;;;;;12.44;7.66;;;;;;;9.34;62.68;98567.80;331863;110;1962059;-72
2021/04/21 01:25:40;;;;;;;14.74;8.40;;;;;;;9.27;62.82;98572.45;359884;112;1961905;-72
2021/04/21 01:26:49;;;;;;;12.67;7.74;;;;;;;9.29;62.69;98568.49;358542;110;1962050;-72
2021/04/21 01:28:05;;;;;;;13.02;8.60;;;;;;;9.27;63.29;98567.88;359778;110;1962944;-72
2021/04/21 01:29:14;;;;;;;17.49;9.48;;;;;;;9.25;63.09;98564.59;358599;109;1961956;-72
2021/04/21 01:30:23;;;;;;;13.26;8.02;;;;;;;9.29;62.96;98564.95;360204;110;1960750;-71
2021/04/21 01:31:32;;;;;;;13.85;8.24;;;;;;;9.26;63.09;98574.30;358592;110;1960886;-72
2021/04/21 01:32:40;;;;;;;14.46;8.56;;;;;;;9.23;63.26;98570.22;348857;114;1961849;-72
2021/04/21 01:33:50;;;;;;;13.81;8.90;;;;;;;9.30;62.98;98564.73;305144;114;2756007;-72
2021/04/21 01:34:57;;;;;;;16.04;8.96;;;;;;;9.27;62.94;98573.27;351887;113;1963001;-73
2021/04/21 01:36:05;;;;;;;12.78;8.01;;;;;;;9.31;62.81;98570.94;348594;114;1963670;-72
2021/04/21 01:37:13;;;;;;;13.36;8.32;;;;;;;9.33;62.80;98566.16;351475;114;1961940;-72
2021/04/21 01:38:20;;;;;;;12.09;7.41;;;;;;;9.30;62.80;98570.13;352296;114;1961934;-72
2021/04/21 01:39:27;;;;;;;12.57;8.35;;;;;;;9.18;63.34;98577.30;324080;113;2464972;-72
2021/04/21 01:40:44;;;;;;;11.60;7.61;;;;;;;9.11;63.71;98574.69;350218;113;1961989;-72
2021/04/21 01:41:54;;;;;;;12.94;8.25;;;;;;;9.18;63.54;98572.76;341693;116;1960672;-72
2021/04/21 01:43:21;;;;;;;13.02;7.62;;;;;;;9.32;62.93;98573.42;345441;116;1961937;-72
2021/04/21 01:44:40;;;;;;;12.23;7.32;;;;;;;9.32;62.87;98572.61;340693;114;1960869;-73
2021/04/21 01:45:43;;;;;;;13.43;7.73;;;;;;;9.23;63.20;98570.22;314279;114;2527002;-71
2021/04/21 01:46:52;;;;;;;12.29;8.02;;;;;;;9.20;63.27;98583.30;350287;114;1962964;-71
2021/04/21 01:47:59;;;;;;;12.94;7.93;;;;;;;9.23;63.27;98585.53;348550;114;1963942;-72
2021/04/21 01:49:18;;;;;;;13.53;8.23;;;;;;;9.22;63.21;98584.72;313837;113;2611927;-73
2021/04/21 01:50:26;;;;;;;13.74;8.07;;;;;;;9.17;63.49;98587.25;329372;114;2276942;-73
2021/04/21 01:51:33;;;;;;;12.39;7.48;;;;;;;9.16;63.74;98584.80;349505;114;1962033;-73
2021/04/21 01:52:49;;;;;;;14.56;8.06;;;;;;;9.14;63.54;98581.50;349834;114;1961927;-72
2021/04/21 01:53:59;;;;;;;14.08;8.36;;;;;;;9.15;63.60;98585.83;352938;114;1961983;-72
2021/04/21 01:55:17;;;;;;;12.87;7.68;;;;;;;9.16;63.39;98585.62;348953;115;1961918;-72
2021/04/21 01:56:31;;;;;;;12.40;7.42;;;;;;;9.17;63.36;98589.95;335306;118;1962020;-73
2021/04/21 01:57:45;;;;;;;11.37;7.33;;;;;;;9.13;63.62;98583.37;338325;114;1962085;-73
2021/04/21 01:58:57;;;;;;;11.66;7.57;;;;;;;9.08;63.72;98577.83;318734;113;1961986;-73
2021/04/21 02:00:28;;;;;;;12.43;8.01;;;;;;;9.09;63.67;98579.47;319643;108;2685010;-73
2021/04/21 02:01:59;;;;;;;12.74;8.23;;;;;;;9.03;63.94;98586.58;360955;110;1961957;-72
2021/04/21 02:03:36;;;;;;;12.69;7.98;;;;;;;9.01;63.84;98585.14;331938;110;2435967;-72
2021/04/21 02:04:54;;;;;;;12.07;7.29;;;;;;;9.01;63.96;98579.76;359598;111;1961963;-72
2021/04/21 02:06:15;;;;;;;14.07;7.69;;;;;;;9.01;63.67;98574.38;301126;112;2166300;-72
2021/04/21 02:07:27;;;;;;;15.42;8.58;;;;;;;8.95;64.01;98583.35;354304;112;1961957;-72
2021/04/21 02:08:58;;;;;;;12.31;8.13;;;;;;;8.90;64.38;98583.19;354966;112;1959850;-72
2021/04/21 02:10:07;;;;;;;15.32;8.08;;;;;;;8.93;64.05;98578.17;352819;114;1961931;-72
2021/04/21 02:11:22;;;;;;;11.86;7.79;;;;;;;8.92;64.21;98578.41;362417;110;1962010;-72
2021/04/21 02:12:38;;;;;;;13.11;8.69;;;;;;;8.90;64.25;98584.01;350409;111;2930959;-72
2021/04/21 02:14:05;;;;;;;12.44;7.71;;;;;;;8.91;64.30;98579.44;304647;111;2121276;-71
2021/04/21 02:15:20;;;;;;;14.76;8.70;;;;;;;8.91;64.35;98571.36;355547;113;1962909;-72
2021/04/21 02:16:49;;;;;;;14.50;7.26;;;;;;;8.90;64.25;98575.93;355442;112;1961956;-72
2021/04/21 02:18:21;;;;;;;11.38;7.47;;;;;;;8.87;64.68;98581.77;357056;112;1963000;-71
2021/04/21 02:19:55;;;;;;;12.81;8.06;;;;;;;8.84;64.75;98584.91;356295;111;1961662;-72
2021/04/21 02:21:16;;;;;;;11.66;7.69;;;;;;;8.82;64.54;98573.52;358552;111;1968930;-72
2021/04/21 02:22:35;;;;;;;12.51;8.16;;;;;;;8.85;64.49;98581.16;356101;111;1960768;-71
2021/04/21 02:23:59;;;;;;;14.33;8.43;;;;;;;8.76;64.97;98579.80;346212;115;1961921;-72
2021/04/21 02:25:26;;;;;;;12.46;7.79;;;;;;;8.76;65.19;98577.11;332390;119;1962041;-72
2021/04/21 02:26:40;;;;;;;13.58;7.78;;;;;;;8.77;64.71;98578.74;354144;111;1961970;-72
2021/04/21 02:28:08;;;;;;;13.48;8.11;;;;;;;8.80;64.75;98586.38;357224;111;1961997;-72
2021/04/21 02:29:41;;;;;;;11.49;7.46;;;;;;;8.84;64.36;98584.05;357104;111;1964013;-71
2021/04/21 02:31:14;;;;;;;12.45;7.72;;;;;;;8.82;64.57;98578.91;331428;112;2239931;-73
2021/04/21 02:32:36;;;;;;;12.68;7.61;;;;;;;8.75;65.09;98578.95;358323;111;1963967;-71
2021/04/21 02:33:57;;;;;;;11.54;7.61;;;;;;;8.74;64.97;98574.63;299309;113;2169916;-72
2021/04/21 02:35:16;;;;;;;14.01;7.83;;;;;;;8.71;64.95;98587.72;357989;111;1967765;-72
2021/04/21 02:36:26;;;;;;;12.43;7.44;;;;;;;8.70;65.00;98584.17;358628;111;1961088;-72
2021/04/21 02:37:38;;;;;;;11.86;7.77;;;;;;;8.72;65.06;98581.27;318545;112;1962037;-71
2021/04/21 02:38:59;;;;;;;15.26;7.96;;;;;;;8.73;64.89;98580.22;358733;111;1961928;-72
2021/04/21 02:40:24;;;;;;;13.72;8.19;;;;;;;8.72;65.05;98583.97;358180;111;1962000;-72
2021/04/21 02:41:36;;;;;;;12.27;7.51;;;;;;;8.63;65.39;98579.92;358740;111;1964943;-71
2021/04/21 02:42:51;;;;;;;;;;;;;;;8.57;65.80;98592.36;304119;111;2236032;-71
2021/04/21 02:44:19;;;;;;;13.02;8.04;;;;;;;8.63;65.48;98577.22;355186;111;1960953;-72
2021/04/21 02:45:56;;;;;;;13.79;8.41;;;;;;;8.63;65.55;98585.30;356305;111;1960912;-72
2021/04/21 02:47:12;;;;;;;12.43;7.40;;;;;;;8.68;65.25;98582.74;357551;111;1962048;-71
2021/04/21 02:48:22;;;;;;;13.26;8.37;;;;;;;8.63;65.41;98588.81;356918;111;1961955;-72
2021/04/21 02:49:56;;;;;;;13.85;7.98;;;;;;;8.62;65.35;98589.02;356938;111;1961997;-73
2021/04/21 02:51:11;;;;;;;12.43;7.83;;;;;;;8.60;65.41;98589.25;358090;112;1962012;-72
2021/04/21 02:52:41;;;;;;;14.59;7.71;;;;;;;8.52;65.87;98593.04;357554;111;1962055;-72
2021/04/21 02:53:50;;;;;;;12.50;7.93;;;;;;;8.55;65.56;98587.21;357660;111;1961957;-72
2021/04/21 02:55:16;;;;;;;15.07;8.38;;;;;;;8.55;65.77;98589.09;350889;111;1963882;-72
2021/04/21 02:56:38;;;;;;;12.86;7.78;;;;;;;8.55;65.69;98591.78;358032;112;1961997;-72
2021/04/21 02:57:55;;;;;;;15.01;8.77;;;;;;;8.59;65.58;98593.79;357422;111;1961989;-72
2021/04/21 02:59:22;;;;;;;12.61;7.67;;;;;;;8.63;65.51;98598.77;358733;111;1962010;-71
2021/04/21 03:00:39;;;;;;;13.95;8.45;;;;;;;8.58;65.72;98597.53;355800;111;1961938;-72
2021/04/21 03:01:59;;;;;;;14.22;8.20;;;;;;;8.63;65.51;98602.27;306049;111;2116250;-72
2021/04/21 03:03:14;;;;;;;12.63;7.30;;;;;;;8.64;65.47;98597.70;339377;118;1964016;-71
2021/04/21 03:04:23;;;;;;;11.85;7.32;;;;;;;8.67;65.17;98602.64;330394;111;1961998;-71
2021/04/21 03:05:32;;;;;;;12.23;7.95;;;;;;;8.63;65.37;98609.53;319468;111;2638958;-72
2021/04/21 03:06:45;;;;;;;13.71;8.34;;;;;;;8.59;65.50;98606.43;350543;111;2945013;-71
2021/04/21 03:08:20;;;;;;;12.53;8.33;;;;;;;8.59;65.51;98609.94;358533;111;1962013;-71
2021/04/21 03:09:29;;;;;;;14.01;7.41;;;;;;;8.58;65.63;98607.48;356950;111;1961789;-72
2021/04/21 03:10:45;;;;;;;13.42;8.28;;;;;;;8.56;65.87;98604.18;357896;111;1961989;-71
2021/04/21 03:11:53;;;;;;;12.51;7.94;;;;;;;8.52;65.98;98609.19;357908;111;1962106;-72
2021/04/21 03:13:08;;;;;;;12.05;7.48;;;;;;;8.54;65.73;98609.77;336791;111;2296967;-72
2021/04/21 03:14:20;;;;;;;13.06;7.65;;;;;;;8.56;65.88;98610.38;325782;111;1961976;-72
2021/04/21 03:15:29;;;;;;;14.53;8.95;;;;;;;8.59;65.66;98599.17;357749;111;1963025;-72
2021/04/21 03:16:49;;;;;;;14.03;8.61;;;;;;;8.64;65.69;98609.30;357085;111;1960836;-73
2021/04/21 03:17:57;;;;;;;12.53;7.70;;;;;;;8.67;65.56;98610.72;347712;114;1960878;-72
2021/04/21 03:19:06;;;;;;;15.43;8.26;;;;;;;8.59;65.65;98609.94;302390;112;2149969;-72
2021/04/21 03:20:19;;;;;;;13.41;8.50;;;;;;;8.52;65.99;98609.19;317318;111;2651980;-72
2021/04/21 03:21:30;;;;;;;14.82;8.56;;;;;;;8.66;65.46;98615.28;357497;112;1963992;-72
2021/04/21 03:22:38;;;;;;;12.89;8.60;;;;;;;8.70;65.28;98612.97;357128;111;1961926;-72
2021/04/21 03:23:45;;;;;;;12.52;8.46;;;;;;;8.71;65.35;98614.64;353374;111;1963010;-72
2021/04/21 03:25:07;;;;;;;13.55;8.72;;;;;;;8.72;65.48;98616.27;358766;111;1962032;-73
2021/04/21 03:26:15;;;;;;;13.71;8.67;;;;;;;8.75;65.43;98615.83;354188;111;1961913;-72
2021/04/21 03:27:24;;;;;;;13.09;8.66;;;;;;;8.75;65.38;98613.95;357802;111;1961975;-71
2021/04/21 03:28:33;;;;;;;12.84;7.82;;;;;;;8.76;65.38;98622.88;357954;112;1962996;-72
2021/04/21 03:29:42;;;;;;;13.78;9.24;;;;;;;8.73;65.45;98618.76;356932;111;1963024;-72
2021/04/21 03:30:54;;;;;;;15.15;8.34;;;;;;;8.80;65.26;98621.38;321694;108;1960691;-73
2021/04/21 03:32:03;;;;;;;16.22;7.83;;;;;;;8.86;65.05;98620.49;338755;116;1962035;-72
2021/04/21 03:33:12;;;;;;;11.63;7.47;;;;;;;8.90;64.97;98619.02;340905;115;1962023;-72
2021/04/21 03:34:31;;;;;;;13.02;8.29;;;;;;;8.97;64.74;98625.18;340251;116;1962006;-72
2021/04/21 03:35:39;;;;;;;14.08;7.73;;;;;;;8.94;64.78;98624.78;345141;110;1961882;-72
2021/04/21 03:36:45;;;;;;;16.62;8.50;;;;;;;8.96;64.76;98628.08;360486;111;1961944;-72
2021/04/21 03:38:08;;;;;;;12.49;7.97;;;;;;;8.93;64.80;98623.14;310445;115;2654970;-72
2021/04/21 03:39:14;;;;;;;13.31;7.29;;;;;;;8.92;65.00;98634.97;359040;110;1963047;-72
2021/04/21 03:40:20;;;;;;;12.99;8.17;;;;;;;9.02;64.64;98629.87;356626;111;1962016;-72
2021/04/21 03:41:27;;;;;;;14.94;7.76;;;;;;;9.10;64.40;98629.59;325047;111;2531960;-72
2021/04/21 03:42:33;;;;;;;12.81;7.99;;;;;;;9.07;64.46;98637.31;358783;112;1960653;-72
2021/04/21 03:43:40;;;;;;;12.34;7.39;;;;;;;9.13;64.33;98639.95;351469;115;1961983;-72
2021/04/21 03:44:47;;;;;;;13.88;7.90;;;;;;;9.12;64.25;98634.77;312481;112;2027975;-72
2021/04/21 03:45:53;;;;;;;13.37;8.01;;;;;;;9.16;64.23;98642.20;347115;115;1961911;-72
2021/04/21 03:47:00;;;;;;;14.17;7.87;;;;;;;9.17;64.14;98637.63;348915;113;1962205;-73
2021/04/21 03:48:07;;;;;;;13.02;8.35;;;;;;;9.16;64.11;98644.08;335792;112;2344907;-73
2021/04/21 03:49:13;;;;;;;12.74;7.32;;;;;;;9.16;64.17;98641.38;356331;113;1961856;-72
2021/04/21 03:50:21;;;;;;;13.55;7.60;;;;;;;9.17;64.04;98637.63;356190;112;1962801;-73
2021/04/21 03:51:27;;;;;;;11.53;7.04;;;;;;;9.12;64.28;98637.47;356465;108;1962237;-72
2021/04/21 03:52:36;;;;;;;12.12;7.72;;;;;;;9.15;64.06;98637.84;347590;115;1960781;-72
2021/04/21 03:53:43;;;;;;;12.12;7.78;;;;;;;9.15;64.10;98635.14;347743;115;1960848;-73
2021/04/21 03:54:52;;;;;;;13.66;8.05;;;;;;;9.08;64.17;98645.18;346857;115;1960777;-73
2021/04/21 03:56:00;;;;;;;13.16;8.59;;;;;;;9.25;63.81;98638.16;346259;112;1960647;-73
2021/04/21 03:57:07;;;;;;;13.14;8.18;;;;;;;9.24;63.74;98643.78;284487;115;2213959;-73
2021/04/21 03:58:15;;;;;;;13.30;7.90;;;;;;;9.21;63.83;98636.16;347700;115;1960698;-73
2021/04/21 03:59:22;;;;;;;12.89;7.89;;;;;;;9.13;63.98;98639.95;346292;114;1963791;-73
2021/04/21 04:00:32;;;;;;;12.28;7.84;;;;;;;9.17;63.92;98648.41;315908;115;2488787;-73
2021/04/21 04:01:40;;;;;;;13.29;8.28;;;;;;;9.07;64.20;98646.20;349183;114;1960909;-72
2021/04/21 04:02:52;;;;;;;14.64;8.28;;;;;;;9.04;64.32;98654.73;320127;115;1960698;-73
2021/04/21 04:04:02;;;;;;;;;;;;;;;9.09;64.29;98649.52;348446;115;1959823;-73
2021/04/21 04:05:12;;;;;;;12.45;7.64;;;;;;;9.14;64.19;98643.47;345198;115;1960933;-73
2021/04/21 04:06:34;;;;;;;13.62;7.47;;;;;;;9.15;64.14;98662.09;345283;115;1962951;-73
2021/04/21 04:07:44;;;;;;;15.11;8.70;;;;;;;9.16;64.11;98658.36;313896;115;1962027;-72
2021/04/21 04:08:53;;;;;;;13.60;8.06;;;;;;;9.16;64.04;98658.36;298747;115;2069435;-72
2021/04/21 04:10:02;;;;;;;14.07;8.47;;;;;;;9.13;64.10;98656.12;345010;115;1961978;-72
2021/04/21 04:11:11;;;;;;;13.72;8.03;;;;;;;9.17;63.96;98661.88;344718;115;1960907;-73
2021/04/21 04:12:19;;;;;;;13.09;7.98;;;;;;;9.20;63.81;98662.25;344234;115;1961920;-72
2021/04/21 04:13:28;;;;;;;12.77;7.97;;;;;;;9.21;63.81;98666.61;290996;115;2159251;-72
2021/04/21 04:14:47;;;;;;;12.62;8.34;;;;;;;9.19;63.92;98662.48;345257;115;1961942;-73
2021/04/21 04:15:57;;;;;;;14.07;7.99;;;;;;;9.19;63.83;98662.48;347574;114;1961894;-72
2021/04/21 04:17:03;;;;;;;11.76;7.33;;;;;;;9.20;63.84;98669.52;349435;114;1961957;-72
2021/04/21 04:18:14;;;;;;;13.36;8.68;;;;;;;9.17;64.04;98664.58;322536;112;1962006;-73
2021/04/21 04:19:20;;;;;;;13.91;8.08;;;;;;;9.19;63.93;98667.87;319102;112;1962964;-72
2021/04/21 04:20:30;;;;;;;13.19;7.37;;;;;;;9.21;63.86;98676.57;353597;112;1962989;-73
2021/04/21 04:21:37;;;;;;;12.63;7.70;;;;;;;9.26;63.73;98676.70;352087;112;1962983;-74
2021/04/21 04:22:50;;;;;;;12.71;8.64;;;;;;;9.29;63.57;98675.44;312493;112;2876049;-72
2021/04/21 04:23:58;;;;;;;14.35;8.79;;;;;;;9.23;63.81;98669.91;354471;114;1961990;-73
2021/04/21 04:25:06;;;;;;;14.08;8.53;;;;;;;9.21;63.68;98677.39;324839;114;1963017;-73
2021/04/21 04:26:15;;;;;;;14.70;9.58;;;;;;;9.21;63.71;98673.88;355004;112;1961951;-73
2021/04/21 04:27:23;;;;;;;13.90;9.18;;;;;;;9.21;63.76;98669.30;354707;114;1962921;-72
2021/04/21 04:28:31;;;;;;;14.66;8.55;;;;;;;9.24;63.64;98682.33;332845;112;1961974;-73
2021/04/21 04:29:37;;;;;;;12.81;8.87;;;;;;;9.27;63.55;98682.94;353542;114;1961963;-72
2021/04/21 04:30:45;;;;;;;13.59;8.52;;;;;;;9.29;63.53;98680.83;310095;112;2693043;-72
2021/04/21 04:31:52;;;;;;;15.99;9.13;;;;;;;9.30;63.50;98677.92;352762;112;1961913;-72
2021/04/21 04:32:59;;;;;;;13.36;9.08;;;;;;;9.23;63.83;98678.00;314728;114;2669022;-72
2021/04/21 04:34:07;;;;;;;14.88;9.15;;;;;;;9.22;63.83;98675.52;349764;114;1964999;-72
2021/04/21 04:35:13;;;;;;;14.84;9.87;;;;;;;9.26;63.62;98679.40;305013;112;2791992;-72
2021/04/21 04:36:36;;;;;;;13.25;9.28;;;;;;;9.29;63.75;98676.28;352863;112;1961989;-72
2021/04/21 04:37:42;;;;;;;14.26;9.36;;;;;;;9.33;63.41;98680.17;359409;112;1962087;-72
2021/04/21 04:38:48;;;;;;;16.44;10.20;;;;;;;9.29;63.54;98681.67;328075;112;2504094;-72
2021/04/21 04:39:54;;;;;;;16.67;9.57;;;;;;;9.23;63.74;98679.84;335455;112;1962964;-72
2021/04/21 04:41:00;;;;;;;16.04;10.41;;;;;;;9.23;63.80;98679.84;358653;112;1962019;-72
2021/04/21 04:42:08;;;;;;;16.77;9.86;;;;;;;9.28;63.77;98682.70;360931;110;1960715;-72
2021/04/21 04:43:14;;;;;;;17.26;11.41;;;;;;;9.31;63.66;98684.95;364858;109;1961991;-72
2021/04/21 04:44:21;;;;;;;18.68;13.99;;;;;;;9.34;63.57;98686.38;366051;110;1962022;-72
2021/04/21 04:45:29;;;;;;;19.34;13.87;;;;;;;9.52;63.10;98681.02;364691;110;1963006;-72
2021/04/21 04:46:41;;;;;;;17.93;14.07;;;;;;;9.52;63.04;98672.92;319353;110;2745976;-71
2021/04/21 04:47:54;;;;;;;16.26;11.60;;;;;;;9.54;62.84;98683.50;348086;110;2909062;-72
2021/04/21 04:49:15;;;;;;;16.52;12.82;;;;;;;9.55;62.77;98674.34;363976;110;1961935;-72
2021/04/21 04:50:35;;;;;;;15.56;10.91;;;;;;;9.54;62.86;98688.89;314442;110;2858907;-72
2021/04/21 04:51:46;;;;;;;18.00;11.91;;;;;;;9.57;62.74;98681.17;369139;108;1961969;-72
2021/04/21 04:52:54;;;;;;;18.07;11.32;;;;;;;9.63;62.49;98682.14;340328;110;2306913;-72
2021/04/21 04:54:04;;;;;;;16.57;11.48;;;;;;;9.66;62.37;98676.33;361251;110;1960992;-72
2021/04/21 04:55:14;;;;;;;14.82;10.82;;;;;;;9.71;62.31;98678.33;360573;110;1961931;-73
2021/04/21 04:56:23;;;;;;;17.62;11.56;;;;;;;9.75;62.18;98685.75;358275;112;1962001;-72
2021/04/21 04:57:30;;;;;;;16.47;10.00;;;;;;;9.76;62.20;98681.18;360077;110;1961984;-72
2021/04/21 04:58:40;;;;;;;17.84;12.26;;;;;;;9.75;62.11;98684.94;360384;110;1961957;-72
2021/04/21 04:59:48;;;;;;;18.32;10.45;;;;;;;9.81;61.98;98682.14;311516;110;2803969;-72
2021/04/21 05:01:04;;;;;;;16.09;11.49;;;;;;;9.81;61.92;98684.02;360912;110;1961988;-73
2021/04/21 05:02:11;;;;;;;19.43;13.28;;;;;;;9.83;62.11;98688.15;355063;110;1963967;-74
2021/04/21 05:03:24;;;;;;;18.72;10.75;;;;;;;9.91;62.09;98692.42;350975;112;1961993;-74
2021/04/21 05:04:34;;;;;;;;;;;;;;;9.94;61.78;98696.55;364077;110;1960986;-73
2021/04/21 05:05:42;;;;;;;17.43;11.08;;;;;;;9.91;61.91;98698.63;360439;110;1961001;-73
2021/04/21 05:06:51;;;;;;;21.48;11.38;;;;;;;9.96;61.65;98697.97;361852;109;1962028;-73
2021/04/21 05:08:09;;;;;;;20.81;11.16;;;;;;;9.95;61.62;98707.13;354683;108;1961977;-73
2021/04/21 05:09:18;;;;;;;21.73;11.53;;;;;;;9.98;61.57;98711.24;367211;108;1961957;-73
2021/04/21 05:10:28;;;;;;;23.36;12.47;;;;;;;9.47;61.66;98637.73;330495;109;2581838;-72
2021/04/21 05:11:37;;;;;;;20.73;12.13;;;;;;;9.94;61.52;98704.63;357629;110;1962053;-73
2021/04/21 05:12:44;;;;;;;20.03;13.23;;;;;;;9.92;61.59;98704.84;361563;110;1961918;-73
2021/04/21 05:13:51;;;;;;;20.41;12.29;;;;;;;10.03;61.38;98711.36;364556;108;1961962;-72
2021/04/21 05:14:59;;;;;;;18.59;12.28;;;;;;;9.98;61.50;98717.45;366067;108;1961930;-73
2021/04/21 05:16:08;;;;;;;18.76;11.64;;;;;;;9.94;61.61;98710.03;366988;108;1965010;-74
2021/04/21 05:17:53;;;;;;;23.23;11.70;;;;;;;9.93;61.45;98711.91;366999;108;1962028;-74
2021/04/21 05:19:15;;;;;;;20.26;11.52;;;;;;;9.95;61.34;98714.36;366729;108;1961998;-72
2021/04/21 05:20:44;;;;;;;20.07;11.88;;;;;;;9.91;61.34;98719.39;361790;109;1962028;-72
2021/04/21 05:22:02;;;;;;;21.42;13.86;;;;;;;9.97;61.30;98715.79;366282;109;1961976;-73
2021/04/21 05:23:26;;;;;;;18.54;11.61;;;;;;;9.99;61.49;98718.27;353013;114;1961893;-73
2021/04/21 05:24:57;;;;;;;19.37;12.20;;;;;;;10.08;61.23;98720.45;365459;109;1961985;-73
2021/04/21 05:26:22;;;;;;;23.57;12.63;;;;;;;10.19;60.98;98721.56;363682;110;1962996;-72
2021/04/21 05:28:00;;;;;;;21.45;12.00;;;;;;;10.26;60.90;98716.89;347974;112;1961997;-73
2021/04/21 05:29:36;;;;;;;21.23;11.88;;;;;;;10.24;60.80;98720.86;357715;108;1961780;-72
2021/04/21 05:31:13;;;;;;;19.70;12.08;;;;;;;10.23;60.65;98724.62;341283;117;1961949;-73
2021/04/21 05:32:57;;;;;;;17.18;11.46;;;;;;;10.29;60.56;98724.59;330540;116;2957031;-73
2021/04/21 05:34:25;;;;;;;18.07;11.70;;;;;;;10.26;60.51;98733.08;340987;116;1962137;-73
2021/04/21 05:35:49;;;;;;;20.96;11.72;;;;;;;10.17;60.57;98733.64;340816;116;1960857;-73
2021/04/21 05:37:10;;;;;;;19.24;12.11;;;;;;;10.18;60.71;98728.00;338808;117;1964047;-73
2021/04/21 05:38:40;;;;;;;20.11;13.09;;;;;;;10.19;60.89;98729.66;325796;122;1963025;-73